Time;durP1;ratioP1;P1;durP2;ratioP2;P2;SDS_P1;SDS_P2;PMS_P1;PMS_P2;Temp;Humidity;BMP_temperature;BMP_pressure;BME280_temperature;BME280_humidity;BME280_pressure;Samples;Min_cycle;Max_cycle;Signal;HPM_P1;HPM_P2
2023/05/04 00:02:04;;;;;;;31.48;14.98;;;;;;;;;;5016038;28;20029;-80
2023/05/04 00:04:30;;;;;;;32.65;15.27;;;;;;;;;;5009930;28;20050;-80
2023/05/04 00:06:55;;;;;;;35.53;14.38;;;;;;;;;;4999826;28;20041;-80
2023/05/04 00:09:20;;;;;;;30.15;13.30;;;;;;;;;;5019143;28;20025;-79
2023/05/04 00:11:46;;;;;;;37.58;11.73;;;;;;;;;;5019646;28;20025;-80
2023/05/04 00:14:11;;;;;;;29.98;11.98;;;;;;;;;;5049538;28;20079;-80
2023/05/04 00:16:37;;;;;;;27.05;10.32;;;;;;;;;;5035555;28;20025;-80
2023/05/04 00:19:02;;;;;;;24.95;10.05;;;;;;;;;;5052379;28;20029;-80
2023/05/04 00:21:28;;;;;;;21.80;9.88;;;;;;;;;;5035728;28;20457;-80
2023/05/04 00:23:53;;;;;;;22.10;9.55;;;;;;;;;;5052380;28;20025;-80
2023/05/04 00:26:18;;;;;;;19.35;9.20;;;;;;;;;;5019041;28;20348;-80
2023/05/04 00:28:44;;;;;;;26.38;9.98;;;;;;;;;;5052049;28;20032;-80
2023/05/04 00:31:09;;;;;;;26.50;9.25;;;;;;;;;;5052176;28;20033;-81
2023/05/04 00:33:35;;;;;;;25.33;10.50;;;;;;;;;;5052050;28;20025;-81
2023/05/04 00:36:04;;;;;;;26.25;9.90;;;;;;;;;;5052158;28;20049;-80
2023/05/04 00:38:29;;;;;;;24.20;10.13;;;;;;;;;;5035484;28;20021;-80
2023/05/04 00:40:56;;;;;;;25.98;9.55;;;;;;;;;;5051996;28;20445;-80
2023/05/04 00:43:22;;;;;;;28.08;10.88;;;;;;;;;;5052008;28;20426;-80
2023/05/04 00:45:47;;;;;;;28.08;10.73;;;;;;;;;;5035544;28;20136;-80
2023/05/04 00:48:13;;;;;;;24.70;9.73;;;;;;;;;;5052133;28;20128;-81
2023/05/04 00:50:38;;;;;;;25.40;10.50;;;;;;;;;;5018962;28;20033;-80
2023/05/04 00:53:07;;;;;;;26.38;10.15;;;;;;;;;;5019034;28;20112;-80
2023/05/04 00:55:33;;;;;;;31.60;10.40;;;;;;;;;;5035794;28;20192;-81
2023/05/04 00:57:58;;;;;;;26.90;10.63;;;;;;;;;;5035396;28;20120;-80
2023/05/04 01:00:23;;;;;;;23.45;10.60;;;;;;;;;;5051668;28;20437;-80
2023/05/04 01:02:49;;;;;;;24.30;10.57;;;;;;;;;;5051961;28;20033;-80
2023/05/04 01:05:15;;;;;;;26.45;9.65;;;;;;;;;;5052018;28;20052;-80
2023/05/04 01:07:49;;;;;;;29.55;10.55;;;;;;;;;;5019195;28;20083;-81
2023/05/04 01:10:18;;;;;;;24.65;9.80;;;;;;;;;;5052917;28;20086;-80
2023/05/04 01:12:48;;;;;;;33.75;12.45;;;;;;;;;;5002510;28;20069;-80
2023/05/04 01:15:14;;;;;;;25.77;11.93;;;;;;;;;;5025480;28;20112;-81
2023/05/04 01:17:40;;;;;;;26.95;12.18;;;;;;;;;;5018696;28;20132;-81
2023/05/04 01:20:08;;;;;;;28.95;12.77;;;;;;;;;;5002383;28;20454;-81
2023/05/04 01:22:34;;;;;;;30.50;13.27;;;;;;;;;;5019062;28;20115;-81
2023/05/04 01:25:00;;;;;;;38.55;13.52;;;;;;;;;;5002508;28;20442;-81
2023/05/04 01:27:45;;;;;;;30.92;11.63;;;;;;;;;;5035141;28;20152;-81
2023/05/04 01:30:31;;;;;;;28.67;12.02;;;;;;;;;;5020521;28;20098;-81
2023/05/04 01:32:59;;;;;;;26.42;11.38;;;;;;;;;;5003418;28;20073;-82
2023/05/04 01:35:25;;;;;;;30.00;11.73;;;;;;;;;;5018468;28;20473;-81
2023/05/04 01:37:51;;;;;;;28.85;11.55;;;;;;;;;;5018663;28;20025;-80
2023/05/04 01:40:16;;;;;;;34.90;13.52;;;;;;;;;;5018668;28;20159;-81
2023/05/04 01:42:41;;;;;;;32.83;14.18;;;;;;;;;;5055226;28;20032;-80
2023/05/04 01:45:08;;;;;;;39.65;15.38;;;;;;;;;;5038055;28;20385;-80
2023/05/04 01:47:33;;;;;;;33.22;13.88;;;;;;;;;;5038407;28;20115;-81
2023/05/04 01:49:59;;;;;;;40.67;14.98;;;;;;;;;;5038453;28;20147;-81
2023/05/04 01:52:24;;;;;;;32.10;13.18;;;;;;;;;;5038213;28;20087;-81
2023/05/04 01:54:50;;;;;;;26.00;12.18;;;;;;;;;;5022021;28;20054;-81
2023/05/04 01:57:15;;;;;;;38.03;13.57;;;;;;;;;;5022065;28;20041;-81
2023/05/04 01:59:40;;;;;;;30.63;14.73;;;;;;;;;;5038076;28;20450;-82
2023/05/04 02:02:06;;;;;;;36.65;14.45;;;;;;;;;;5038171;28;20071;-81
2023/05/04 02:04:32;;;;;;;34.17;14.95;;;;;;;;;;5021740;28;20048;-80
2023/05/04 02:06:58;;;;;;;29.40;13.05;;;;;;;;;;5056014;28;20112;-81
2023/05/04 02:09:23;;;;;;;35.72;13.50;;;;;;;;;;5038121;28;20472;-81
2023/05/04 02:11:49;;;;;;;35.15;14.02;;;;;;;;;;5055718;28;20114;-81
2023/05/04 02:14:14;;;;;;;34.55;15.23;;;;;;;;;;5037647;28;20095;-82
2023/05/04 02:16:40;;;;;;;35.90;14.85;;;;;;;;;;5021538;28;20025;-81
2023/05/04 02:19:05;;;;;;;41.10;13.40;;;;;;;;;;5020129;28;20059;-81
2023/05/04 02:21:31;;;;;;;26.73;12.23;;;;;;;;;;5004815;28;20098;-81
2023/05/04 02:23:56;;;;;;;33.58;12.13;;;;;;;;;;5021496;28;20425;-79
2023/05/04 02:26:22;;;;;;;25.92;11.60;;;;;;;;;;5055875;28;20116;-79
2023/05/04 02:28:47;;;;;;;28.17;11.02;;;;;;;;;;5055371;28;20041;-83
2023/05/04 02:31:13;;;;;;;27.70;10.15;;;;;;;;;;5037476;28;20036;-81
2023/05/04 02:33:38;;;;;;;27.00;9.45;;;;;;;;;;5037644;28;20312;-82
2023/05/04 02:36:04;;;;;;;21.65;9.80;;;;;;;;;;5021328;28;20033;-80
2023/05/04 02:38:29;;;;;;;25.58;9.63;;;;;;;;;;5055563;28;20035;-80
2023/05/04 02:40:57;;;;;;;27.50;10.88;;;;;;;;;;5037672;28;20352;-80
2023/05/04 02:43:22;;;;;;;20.35;9.27;;;;;;;;;;5005204;28;20377;-81
2023/05/04 02:45:48;;;;;;;22.77;9.65;;;;;;;;;;5037405;28;20039;-81
2023/05/04 02:48:13;;;;;;;23.00;9.70;;;;;;;;;;5004744;28;20031;-81
2023/05/04 02:50:38;;;;;;;24.38;9.93;;;;;;;;;;5037339;28;20037;-81
2023/05/04 02:53:04;;;;;;;23.20;9.38;;;;;;;;;;5036238;28;20028;-81
2023/05/04 02:55:29;;;;;;;23.27;9.90;;;;;;;;;;5037220;28;20434;-80
2023/05/04 02:57:55;;;;;;;24.08;9.98;;;;;;;;;;5037250;28;20028;-78
2023/05/04 03:00:20;;;;;;;21.27;9.68;;;;;;;;;;5055205;28;20051;-78
2023/05/04 03:02:45;;;;;;;21.85;9.55;;;;;;;;;;5020764;28;20508;-81
2023/05/04 03:05:11;;;;;;;22.17;9.52;;;;;;;;;;5054844;28;20463;-81
2023/05/04 03:07:37;;;;;;;21.58;10.35;;;;;;;;;;5037105;28;20072;-79
2023/05/04 03:10:02;;;;;;;21.48;9.75;;;;;;;;;;5034723;28;20060;-79
2023/05/04 03:12:28;;;;;;;23.20;9.50;;;;;;;;;;5034689;28;20037;-80
2023/05/04 03:14:53;;;;;;;25.20;9.55;;;;;;;;;;5033470;28;20065;-79
2023/05/04 03:17:18;;;;;;;19.15;9.23;;;;;;;;;;5034946;28;20030;-79
2023/05/04 03:19:44;;;;;;;19.77;8.80;;;;;;;;;;5040152;28;20025;-79
2023/05/04 03:22:10;;;;;;;24.52;10.43;;;;;;;;;;5031358;28;20374;-80
2023/05/04 03:24:36;;;;;;;22.98;10.35;;;;;;;;;;5054104;28;20025;-81
2023/05/04 03:27:02;;;;;;;20.42;10.38;;;;;;;;;;5053598;28;20112;-81
2023/05/04 03:29:27;;;;;;;26.75;11.30;;;;;;;;;;5054250;28;20119;-81
2023/05/04 03:31:52;;;;;;;25.38;10.07;;;;;;;;;;5053032;28;20021;-82
2023/05/04 03:34:20;;;;;;;29.60;10.75;;;;;;;;;;5052904;28;20033;-81
2023/05/04 03:36:49;;;;;;;25.55;11.15;;;;;;;;;;5054174;28;20018;-80
2023/05/04 03:39:16;;;;;;;23.65;10.45;;;;;;;;;;5052685;28;20029;-81
2023/05/04 03:41:42;;;;;;;29.17;11.93;;;;;;;;;;5020632;28;20466;-81
2023/05/04 03:44:07;;;;;;;26.67;11.13;;;;;;;;;;5036197;28;20057;-81
2023/05/04 03:46:33;;;;;;;28.73;11.40;;;;;;;;;;5036410;28;20031;-81
2023/05/04 03:48:58;;;;;;;28.60;12.32;;;;;;;;;;5036108;28;20024;-81
2023/05/04 03:51:24;;;;;;;28.88;12.68;;;;;;;;;;5052543;28;20036;-80
2023/05/04 03:53:49;;;;;;;32.03;12.70;;;;;;;;;;5052695;28;20055;-81
2023/05/04 03:56:14;;;;;;;34.42;13.20;;;;;;;;;;5036303;28;20021;-81
2023/05/04 03:58:40;;;;;;;32.88;12.63;;;;;;;;;;5019714;28;20025;-80
2023/05/04 04:01:06;;;;;;;30.25;12.60;;;;;;;;;;5052780;28;20046;-81
2023/05/04 04:03:31;;;;;;;31.52;12.93;;;;;;;;;;5036119;28;20081;-81
2023/05/04 04:05:57;;;;;;;33.60;12.18;;;;;;;;;;5052484;28;20024;-82
2023/05/04 04:08:22;;;;;;;29.42;12.57;;;;;;;;;;5053404;28;20377;-82
2023/05/04 04:10:48;;;;;;;30.67;12.25;;;;;;;;;;5035718;28;20474;-82
2023/05/04 04:13:13;;;;;;;31.38;13.07;;;;;;;;;;5036098;28;20120;-81
2023/05/04 04:15:39;;;;;;;32.22;13.38;;;;;;;;;;5052450;28;20025;-80
2023/05/04 04:18:04;;;;;;;34.15;12.25;;;;;;;;;;5052500;28;20020;-78
2023/05/04 04:20:30;;;;;;;30.40;13.50;;;;;;;;;;5052264;28;20021;-79
2023/05/04 04:22:55;;;;;;;35.55;13.55;;;;;;;;;;5012000;28;20136;-80
2023/05/04 04:25:21;;;;;;;34.45;13.75;;;;;;;;;;5015811;28;20025;-80
2023/05/04 04:27:46;;;;;;;32.97;13.20;;;;;;;;;;5015966;28;20029;-80
2023/05/04 04:30:12;;;;;;;31.38;13.52;;;;;;;;;;5016175;28;20037;-80
2023/05/04 04:32:38;;;;;;;25.80;13.10;;;;;;;;;;5032116;28;20065;-80
2023/05/04 04:35:04;;;;;;;41.22;14.68;;;;;;;;;;5033559;28;20513;-80
2023/05/04 04:37:29;;;;;;;29.63;14.25;;;;;;;;;;5032154;28;20030;-80
2023/05/04 04:39:55;;;;;;;36.53;13.63;;;;;;;;;;5032364;28;20034;-82
2023/05/04 04:42:20;;;;;;;29.08;12.93;;;;;;;;;;5015766;28;20065;-80
2023/05/04 04:44:46;;;;;;;35.83;14.10;;;;;;;;;;5032078;28;20061;-79
2023/05/04 04:47:12;;;;;;;36.72;15.48;;;;;;;;;;5039401;28;20115;-78
2023/05/04 04:49:37;;;;;;;33.05;14.57;;;;;;;;;;5061671;28;20047;-80
2023/05/04 04:52:03;;;;;;;41.33;13.88;;;;;;;;;;5046411;28;20572;-79
2023/05/04 04:54:29;;;;;;;31.92;13.02;;;;;;;;;;5025577;28;20032;-81
2023/05/04 04:56:54;;;;;;;28.30;12.63;;;;;;;;;;5028060;28;20059;-80
2023/05/04 04:59:23;;;;;;;33.63;12.85;;;;;;;;;;5041979;28;20045;-79
2023/05/04 05:01:50;;;;;;;28.08;11.93;;;;;;;;;;5023452;28;20028;-80
2023/05/04 05:04:18;;;;;;;38.50;13.50;;;;;;;;;;5051429;28;20411;-80
2023/05/04 05:06:44;;;;;;;33.42;13.00;;;;;;;;;;5048528;28;20798;-81
2023/05/04 05:09:09;;;;;;;25.95;11.65;;;;;;;;;;5037515;28;20036;-80
2023/05/04 05:11:35;;;;;;;22.95;10.90;;;;;;;;;;5058000;28;20029;-81
2023/05/04 05:14:00;;;;;;;36.47;12.93;;;;;;;;;;5057724;28;20037;-80
2023/05/04 05:16:26;;;;;;;28.13;12.48;;;;;;;;;;5052480;28;20052;-80
2023/05/04 05:18:51;;;;;;;26.63;11.75;;;;;;;;;;5039865;28;20034;-80
2023/05/04 05:21:17;;;;;;;29.42;11.77;;;;;;;;;;5043485;28;20043;-80
2023/05/04 05:23:43;;;;;;;31.80;11.50;;;;;;;;;;5051684;28;20035;-80
2023/05/04 05:26:08;;;;;;;24.10;11.43;;;;;;;;;;5064703;28;20029;-81
2023/05/04 05:28:34;;;;;;;33.67;11.68;;;;;;;;;;5062134;28;20036;-81
2023/05/04 05:30:59;;;;;;;31.00;12.38;;;;;;;;;;5062050;28;20084;-81
2023/05/04 05:33:25;;;;;;;27.63;12.18;;;;;;;;;;5089140;22;20040;-81
2023/05/04 05:35:51;;;;;;;29.35;11.85;;;;;;;;;;5028466;28;20021;-81
2023/05/04 05:38:17;;;;;;;23.70;10.52;;;;;;;;;;5028627;28;20037;-77
2023/05/04 05:40:42;;;;;;;40.88;10.50;;;;;;;;;;5025807;28;20045;-79
2023/05/04 05:43:14;;;;;;;32.88;10.68;;;;;;;;;;5048302;28;20022;-78
2023/05/04 05:45:39;;;;;;;29.90;10.15;;;;;;;;;;5043103;28;20140;-80
2023/05/04 05:48:09;;;;;;;31.38;11.23;;;;;;;;;;5045416;28;20083;-83
2023/05/04 05:50:34;;;;;;;25.27;9.90;;;;;;;;;;5059318;28;20041;-81
2023/05/04 05:53:04;;;;;;;20.20;9.85;;;;;;;;;;5060084;28;20041;-81
2023/05/04 05:55:30;;;;;;;28.67;10.45;;;;;;;;;;5061927;28;20033;-78
2023/05/04 05:57:56;;;;;;;26.70;9.55;;;;;;;;;;5072249;28;20036;-78
2023/05/04 06:00:23;;;;;;;19.30;9.13;;;;;;;;;;5042517;28;20495;-82
2023/05/04 06:02:49;;;;;;;31.10;9.68;;;;;;;;;;5024533;28;20083;-81
2023/05/04 06:05:16;;;;;;;30.55;9.70;;;;;;;;;;5024651;28;20026;-80
2023/05/04 06:07:42;;;;;;;23.52;10.10;;;;;;;;;;5042688;28;20021;-79
2023/05/04 06:10:08;;;;;;;27.90;10.38;;;;;;;;;;5023573;28;20036;-80
2023/05/04 06:12:49;;;;;;;26.13;9.63;;;;;;;;;;5041311;28;20053;-78
2023/05/04 06:15:15;;;;;;;25.05;10.40;;;;;;;;;;5006847;28;20100;-80
2023/05/04 06:17:48;;;;;;;21.73;9.38;;;;;;;;;;5024191;28;20033;-80
2023/05/04 06:20:14;;;;;;;22.10;9.32;;;;;;;;;;5025213;28;20127;-80
2023/05/04 06:22:40;;;;;;;23.10;9.77;;;;;;;;;;5043565;28;20033;-79
2023/05/04 06:25:05;;;;;;;24.52;10.23;;;;;;;;;;5012050;28;20179;-80
2023/05/04 06:27:32;;;;;;;24.20;9.57;;;;;;;;;;5042252;28;20061;-79
2023/05/04 06:29:57;;;;;;;23.50;9.77;;;;;;;;;;5044933;28;20040;-80
2023/05/04 06:32:22;;;;;;;23.23;10.80;;;;;;;;;;5046610;28;20037;-79
2023/05/04 06:34:52;;;;;;;22.38;10.70;;;;;;;;;;5045794;28;20104;-80
2023/05/04 06:37:18;;;;;;;26.40;10.48;;;;;;;;;;5026759;28;20109;-81
2023/05/04 06:39:43;;;;;;;22.38;10.27;;;;;;;;;;5036430;28;20394;-80
2023/05/04 06:42:15;;;;;;;24.55;10.15;;;;;;;;;;5046301;28;20037;-82
2023/05/04 06:44:47;;;;;;;27.48;9.90;;;;;;;;;;5044126;28;20081;-79
2023/05/04 06:47:13;;;;;;;27.52;10.60;;;;;;;;;;5048212;28;20311;-79
2023/05/04 06:49:39;;;;;;;27.98;10.45;;;;;;;;;;5064903;28;20021;-80
2023/05/04 06:52:05;;;;;;;37.00;11.35;;;;;;;;;;5057633;28;20155;-78
2023/05/04 06:54:31;;;;;;;24.08;10.85;;;;;;;;;;5059501;28;20036;-78
2023/05/04 06:56:56;;;;;;;27.83;10.77;;;;;;;;;;5062972;28;20037;-78
2023/05/04 06:59:22;;;;;;;31.65;11.40;;;;;;;;;;5058538;28;20128;-81
2023/05/04 07:01:48;;;;;;;26.20;11.50;;;;;;;;;;5060560;28;20033;-79
2023/05/04 07:04:22;;;;;;;28.45;11.05;;;;;;;;;;5054359;28;20025;-80
2023/05/04 07:06:51;;;;;;;30.25;11.35;;;;;;;;;;5054945;28;20029;-77
2023/05/04 07:09:19;;;;;;;30.17;12.30;;;;;;;;;;5036851;28;20051;-76
2023/05/04 07:11:45;;;;;;;28.60;11.30;;;;;;;;;;5062816;28;20107;-78
2023/05/04 07:14:10;;;;;;;29.88;11.80;;;;;;;;;;5059937;28;20039;-77
2023/05/04 07:16:36;;;;;;;29.35;11.68;;;;;;;;;;5057609;28;20079;-77
2023/05/04 07:19:03;;;;;;;29.35;11.48;;;;;;;;;;5055921;28;20025;-78
2023/05/04 07:21:28;;;;;;;27.92;11.80;;;;;;;;;;5040580;28;20033;-79
2023/05/04 07:23:54;;;;;;;29.70;12.73;;;;;;;;;;5013484;28;20040;-78
2023/05/04 07:26:22;;;;;;;34.75;12.43;;;;;;;;;;5010933;28;20406;-78
2023/05/04 07:28:47;;;;;;;33.00;13.23;;;;;;;;;;5035420;28;20041;-77
2023/05/04 07:31:13;;;;;;;35.17;13.25;;;;;;;;;;5057335;28;20437;-79
2023/05/04 07:33:44;;;;;;;27.48;12.35;;;;;;;;;;5060722;28;20056;-78
2023/05/04 07:36:13;;;;;;;33.65;12.82;;;;;;;;;;5027224;28;20057;-77
2023/05/04 07:38:40;;;;;;;32.72;13.60;;;;;;;;;;5041765;28;20017;-77
2023/05/04 07:41:06;;;;;;;35.80;13.15;;;;;;;;;;5031011;28;20044;-79
2023/05/04 07:43:31;;;;;;;28.30;12.27;;;;;;;;;;5025914;28;20025;-79
2023/05/04 07:45:57;;;;;;;28.25;13.38;;;;;;;;;;5041189;28;20108;-80
2023/05/04 07:48:22;;;;;;;30.85;13.20;;;;;;;;;;5042990;28;20560;-78
2023/05/04 07:50:48;;;;;;;32.13;13.88;;;;;;;;;;5028218;28;20033;-79
2023/05/04 07:53:13;;;;;;;30.95;12.70;;;;;;;;;;5059360;28;20025;-79
2023/05/04 07:55:39;;;;;;;31.38;14.48;;;;;;;;;;5026196;28;20025;-78
2023/05/04 07:58:05;;;;;;;29.33;12.50;;;;;;;;;;5009765;28;20123;-77
2023/05/04 08:00:31;;;;;;;35.05;13.65;;;;;;;;;;5042438;28;20040;-78
2023/05/04 08:02:57;;;;;;;32.33;12.60;;;;;;;;;;5026383;28;20028;-78
2023/05/04 08:05:22;;;;;;;30.98;13.27;;;;;;;;;;5026132;28;20060;-78
2023/05/04 08:07:47;;;;;;;35.53;12.73;;;;;;;;;;5053400;28;20051;-78
2023/05/04 08:10:13;;;;;;;32.35;13.30;;;;;;;;;;5043077;28;20024;-78
2023/05/04 08:12:39;;;;;;;32.58;13.70;;;;;;;;;;5040952;28;20037;-79
2023/05/04 08:15:05;;;;;;;32.88;13.23;;;;;;;;;;5044639;28;20101;-76
2023/05/04 08:17:33;;;;;;;32.15;12.32;;;;;;;;;;5055869;28;20025;-77
2023/05/04 08:20:00;;;;;;;30.17;12.63;;;;;;;;;;5066112;28;20025;-77
2023/05/04 08:22:25;;;;;;;33.97;13.23;;;;;;;;;;5062909;28;20039;-78
2023/05/04 08:24:51;;;;;;;30.08;11.75;;;;;;;;;;5045641;28;20057;-78
2023/05/04 08:27:17;;;;;;;28.20;11.40;;;;;;;;;;5062864;28;20029;-77
2023/05/04 08:29:42;;;;;;;27.60;11.63;;;;;;;;;;5011707;28;20466;-80
2023/05/04 08:32:08;;;;;;;30.23;10.45;;;;;;;;;;5045595;28;20119;-78
2023/05/04 08:34:33;;;;;;;28.45;10.10;;;;;;;;;;5040708;28;20075;-77
2023/05/04 08:36:59;;;;;;;26.20;10.15;;;;;;;;;;5027462;28;20021;-77
2023/05/04 08:39:25;;;;;;;23.58;9.77;;;;;;;;;;5014263;28;20069;-77
2023/05/04 08:41:50;;;;;;;21.60;9.52;;;;;;;;;;5016497;28;20056;-78
2023/05/04 08:44:16;;;;;;;25.42;10.63;;;;;;;;;;5014959;28;20071;-78
2023/05/04 08:46:41;;;;;;;33.28;11.48;;;;;;;;;;5031422;28;20070;-78
2023/05/04 08:49:07;;;;;;;21.95;11.23;;;;;;;;;;5034090;28;20038;-79
2023/05/04 08:51:34;;;;;;;23.38;10.63;;;;;;;;;;5036125;28;20106;-78
2023/05/04 08:54:00;;;;;;;31.38;11.63;;;;;;;;;;5036963;28;20037;-78
2023/05/04 08:56:25;;;;;;;33.47;11.45;;;;;;;;;;5022817;28;20029;-78
2023/05/04 08:58:51;;;;;;;20.75;10.73;;;;;;;;;;5052797;28;20318;-77
2023/05/04 09:01:17;;;;;;;33.88;11.50;;;;;;;;;;5030919;28;20463;-79
2023/05/04 09:03:43;;;;;;;23.40;10.35;;;;;;;;;;5017753;28;20029;-77
2023/05/04 09:06:09;;;;;;;22.90;10.45;;;;;;;;;;5045921;28;20028;-80
2023/05/04 09:08:35;;;;;;;23.05;10.93;;;;;;;;;;5033652;28;20082;-77
2023/05/04 09:11:00;;;;;;;23.15;10.35;;;;;;;;;;5055024;28;20048;-77
2023/05/04 09:13:26;;;;;;;28.40;11.20;;;;;;;;;;5036914;28;20842;-78
2023/05/04 09:15:55;;;;;;;23.20;10.25;;;;;;;;;;5054727;28;20021;-76
2023/05/04 09:18:20;;;;;;;26.55;10.40;;;;;;;;;;5037794;28;20359;-78
2023/05/04 09:20:46;;;;;;;22.05;10.20;;;;;;;;;;5039065;28;20146;-78
2023/05/04 09:23:13;;;;;;;21.30;9.48;;;;;;;;;;5020817;28;20043;-77
2023/05/04 09:25:54;;;;;;;20.80;9.32;;;;;;;;;;5020784;28;20120;-79
2023/05/04 09:28:21;;;;;;;24.95;10.38;;;;;;;;;;5026146;28;20052;-79
2023/05/04 09:30:47;;;;;;;20.38;9.77;;;;;;;;;;5058348;28;20466;-78
2023/05/04 09:33:15;;;;;;;19.83;10.43;;;;;;;;;;5040630;28;20032;-78
2023/05/04 09:35:41;;;;;;;24.42;9.77;;;;;;;;;;5043328;28;20095;-78
2023/05/04 09:38:07;;;;;;;19.35;10.18;;;;;;;;;;5048399;28;20086;-78
2023/05/04 09:40:39;;;;;;;26.00;9.27;;;;;;;;;;5042244;28;20092;-80
2023/05/04 09:43:05;;;;;;;20.48;10.10;;;;;;;;;;5062862;28;20079;-80
2023/05/04 09:45:40;;;;;;;23.08;10.18;;;;;;;;;;5059719;28;20446;-78
2023/05/04 09:48:19;;;;;;;20.00;8.63;;;;;;;;;;5066074;28;20086;-80
2023/05/04 09:50:54;;;;;;;21.10;9.43;;;;;;;;;;5049321;28;20098;-79
2023/05/04 09:53:21;;;;;;;24.98;9.38;;;;;;;;;;5038361;28;20665;-80
2023/05/04 09:55:47;;;;;;;20.15;9.32;;;;;;;;;;5032981;28;20033;-78
2023/05/04 09:58:14;;;;;;;22.08;9.15;;;;;;;;;;5016654;28;20439;-79
2023/05/04 10:00:40;;;;;;;24.05;10.57;;;;;;;;;;5023565;28;20112;-78
2023/05/04 10:03:05;;;;;;;23.60;9.43;;;;;;;;;;5043757;28;20097;-79
2023/05/04 10:05:31;;;;;;;21.52;9.68;;;;;;;;;;5014605;28;20080;-80
2023/05/04 10:07:58;;;;;;;20.67;9.98;;;;;;;;;;5032047;28;20061;-79
2023/05/04 10:10:24;;;;;;;33.08;11.18;;;;;;;;;;5029508;28;20029;-79
2023/05/04 10:12:49;;;;;;;24.10;10.30;;;;;;;;;;5032957;28;20454;-78
2023/05/04 10:15:15;;;;;;;20.27;10.43;;;;;;;;;;5054190;28;20032;-79
2023/05/04 10:17:56;;;;;;;20.35;9.43;;;;;;;;;;5032968;28;20143;-80
2023/05/04 10:20:31;;;;;;;20.17;9.68;;;;;;;;;;5046655;28;20078;-79
2023/05/04 10:23:13;;;;;;;19.95;10.02;;;;;;;;;;5057169;28;20028;-80
2023/05/04 10:25:56;;;;;;;22.25;11.13;;;;;;;;;;5057492;28;20081;-79
2023/05/04 10:28:52;;;;;;;25.20;11.30;;;;;;;;;;5057490;28;20067;-79
2023/05/04 10:31:18;;;;;;;25.05;10.68;;;;;;;;;;5030433;28;20041;-81
2023/05/04 10:33:43;;;;;;;26.33;11.32;;;;;;;;;;5060342;28;20036;-79
2023/05/04 10:36:09;;;;;;;24.63;11.60;;;;;;;;;;5057905;28;20385;-78
2023/05/04 10:38:36;;;;;;;25.55;11.07;;;;;;;;;;5067970;28;20081;-79
2023/05/04 10:41:27;;;;;;;23.88;11.60;;;;;;;;;;5000039;28;20032;-78
2023/05/04 10:44:04;;;;;;;27.85;12.45;;;;;;;;;;5028294;28;20041;-79
2023/05/04 10:46:30;;;;;;;21.85;10.73;;;;;;;;;;5050362;28;20052;-77
2023/05/04 10:48:55;;;;;;;22.77;10.00;;;;;;;;;;5029960;28;20382;-79
2023/05/04 10:51:26;;;;;;;16.85;7.30;;;;;;;;;;5032938;28;20024;-78
2023/05/04 10:53:53;;;;;;;17.83;8.75;;;;;;;;;;5028164;28;20083;-78
2023/05/04 10:56:28;;;;;;;21.70;9.07;;;;;;;;;;5017750;28;20032;-77
2023/05/04 10:58:53;;;;;;;21.85;8.85;;;;;;;;;;5001895;28;20129;-78
2023/05/04 11:01:20;;;;;;;21.02;8.73;;;;;;;;;;4996566;28;20124;-78
2023/05/04 11:03:47;;;;;;;22.00;8.13;;;;;;;;;;5049263;28;20029;-79
2023/05/04 11:06:20;;;;;;;21.00;8.10;;;;;;;;;;5001825;28;20424;-76
2023/05/04 11:08:48;;;;;;;16.73;8.45;;;;;;;;;;5005716;28;20060;-78
2023/05/04 11:11:14;;;;;;;19.70;8.13;;;;;;;;;;5045472;28;20243;-77
2023/05/04 11:13:42;;;;;;;18.35;7.72;;;;;;;;;;5045228;28;20120;-79
2023/05/04 11:16:08;;;;;;;16.70;7.32;;;;;;;;;;5012703;28;20029;-76
2023/05/04 11:18:34;;;;;;;15.32;7.38;;;;;;;;;;4999036;28;20033;-78
2023/05/04 11:20:59;;;;;;;14.70;6.32;;;;;;;;;;5011537;28;20073;-80
2023/05/04 11:23:25;;;;;;;10.80;6.28;;;;;;;;;;5048980;28;20541;-78
2023/05/04 11:25:51;;;;;;;12.63;6.15;;;;;;;;;;5017835;28;20025;-77
2023/05/04 11:28:17;;;;;;;14.40;5.95;;;;;;;;;;5013697;28;20124;-80
2023/05/04 11:30:44;;;;;;;18.42;7.10;;;;;;;;;;5006671;28;20029;-78
2023/05/04 11:33:11;;;;;;;12.25;6.10;;;;;;;;;;5013593;28;20060;-81
2023/05/04 11:35:36;;;;;;;11.98;6.03;;;;;;;;;;5028074;28;20069;-80
2023/05/04 11:38:02;;;;;;;10.90;5.80;;;;;;;;;;5029861;28;20103;-80
2023/05/04 11:40:27;;;;;;;9.23;5.28;;;;;;;;;;5017015;28;20021;-80
2023/05/04 11:42:53;;;;;;;15.52;7.40;;;;;;;;;;5000377;28;20044;-80
2023/05/04 11:45:22;;;;;;;13.02;5.35;;;;;;;;;;4999174;28;20090;-80
2023/05/04 11:47:48;;;;;;;10.65;5.03;;;;;;;;;;5016514;28;20032;-79
2023/05/04 11:50:14;;;;;;;10.27;5.25;;;;;;;;;;5014743;28;20076;-81
2023/05/04 11:52:40;;;;;;;8.93;4.18;;;;;;;;;;5014585;28;20094;-80
2023/05/04 11:55:28;;;;;;;13.05;4.85;;;;;;;;;;5031443;28;20021;-80
2023/05/04 11:58:00;;;;;;;8.95;4.38;;;;;;;;;;5031163;28;20343;-80
2023/05/04 12:00:44;;;;;;;7.43;4.15;;;;;;;;;;5053904;28;20025;-81
2023/05/04 12:03:13;;;;;;;7.50;4.03;;;;;;;;;;5014798;28;20032;-78
2023/05/04 12:05:45;;;;;;;9.23;4.00;;;;;;;;;;5034601;28;20025;-79
2023/05/04 12:08:26;;;;;;;7.70;3.90;;;;;;;;;;5019727;28;20025;-78
2023/05/04 12:11:15;;;;;;;9.35;4.05;;;;;;;;;;5022029;28;20095;-78
2023/05/04 12:13:41;;;;;;;9.65;3.85;;;;;;;;;;4989069;28;20029;-79
2023/05/04 12:16:17;;;;;;;11.68;5.40;;;;;;;;;;5004796;28;20025;-78
2023/05/04 12:18:44;;;;;;;10.43;4.93;;;;;;;;;;5006537;28;20434;-79
2023/05/04 12:21:13;;;;;;;10.38;4.03;;;;;;;;;;5022196;28;20021;-79
2023/05/04 12:23:39;;;;;;;9.35;4.65;;;;;;;;;;5022319;28;20090;-80
2023/05/04 12:26:05;;;;;;;8.10;4.32;;;;;;;;;;4989567;28;20147;-79
2023/05/04 12:28:33;;;;;;;9.23;3.70;;;;;;;;;;5022346;28;20033;-80
2023/05/04 12:30:58;;;;;;;9.77;3.85;;;;;;;;;;4989741;28;20025;-80
2023/05/04 12:33:24;;;;;;;8.38;3.58;;;;;;;;;;5021554;28;20111;-80
2023/05/04 12:35:49;;;;;;;7.35;3.67;;;;;;;;;;5055715;28;20639;-80
2023/05/04 12:38:15;;;;;;;10.10;3.90;;;;;;;;;;5024380;28;20461;-80
2023/05/04 12:40:43;;;;;;;6.40;3.55;;;;;;;;;;5025883;28;20445;-79
2023/05/04 12:43:09;;;;;;;6.82;3.75;;;;;;;;;;5025455;28;20119;-80
2023/05/04 12:45:35;;;;;;;7.95;3.80;;;;;;;;;;5041691;28;20051;-78
2023/05/04 12:48:00;;;;;;;8.38;4.15;;;;;;;;;;5010056;28;20497;-81
2023/05/04 12:50:26;;;;;;;8.88;4.40;;;;;;;;;;5025945;28;20093;-79
2023/05/04 12:52:51;;;;;;;5.68;3.55;;;;;;;;;;5026286;28;20399;-79
2023/05/04 12:55:16;;;;;;;9.52;4.38;;;;;;;;;;5037323;28;20044;-80
2023/05/04 12:57:46;;;;;;;6.53;3.67;;;;;;;;;;5003019;28;20032;-78
2023/05/04 13:00:14;;;;;;;5.78;3.45;;;;;;;;;;5036106;28;20029;-80
2023/05/04 13:02:40;;;;;;;8.82;3.58;;;;;;;;;;5035960;28;20029;-79
2023/05/04 13:05:06;;;;;;;7.25;3.35;;;;;;;;;;5018771;28;20025;-79
2023/05/04 13:07:33;;;;;;;6.63;3.55;;;;;;;;;;5015334;28;20039;-79
2023/05/04 13:09:58;;;;;;;6.60;3.42;;;;;;;;;;5035761;28;20120;-79
2023/05/04 13:12:24;;;;;;;6.93;4.15;;;;;;;;;;5035501;28;20466;-78
2023/05/04 13:14:54;;;;;;;7.30;3.38;;;;;;;;;;5019653;28;20039;-80
2023/05/04 13:17:19;;;;;;;11.85;4.03;;;;;;;;;;5035631;28;20029;-80
2023/05/04 13:19:45;;;;;;;5.63;3.40;;;;;;;;;;5054317;28;20039;-80
2023/05/04 13:22:10;;;;;;;6.45;2.95;;;;;;;;;;5036906;28;20043;-80
2023/05/04 13:24:36;;;;;;;7.05;3.47;;;;;;;;;;5021290;28;20393;-79
2023/05/04 13:27:01;;;;;;;5.05;3.28;;;;;;;;;;5041593;28;20029;-79
2023/05/04 13:29:27;;;;;;;8.05;3.97;;;;;;;;;;5057588;28;20429;-79
2023/05/04 13:31:52;;;;;;;8.38;3.95;;;;;;;;;;5006632;28;20045;-79
2023/05/04 13:34:18;;;;;;;7.28;3.72;;;;;;;;;;5055152;28;20045;-78
2023/05/04 13:36:43;;;;;;;8.85;4.03;;;;;;;;;;5059478;28;20021;-78
2023/05/04 13:39:09;;;;;;;7.50;3.75;;;;;;;;;;5039832;28;20028;-79
2023/05/04 13:41:34;;;;;;;11.60;4.30;;;;;;;;;;5056952;28;20519;-79
2023/05/04 13:43:59;;;;;;;7.90;3.78;;;;;;;;;;5056616;28;20029;-79
2023/05/04 13:46:25;;;;;;;8.57;4.15;;;;;;;;;;5022294;28;20033;-78
2023/05/04 13:48:50;;;;;;;12.32;4.47;;;;;;;;;;5038651;28;20367;-78
2023/05/04 13:51:16;;;;;;;9.50;4.57;;;;;;;;;;5038887;28;20147;-80
2023/05/04 13:53:41;;;;;;;8.20;4.20;;;;;;;;;;5022255;28;20036;-80
2023/05/04 13:56:07;;;;;;;8.70;5.05;;;;;;;;;;5038595;28;20025;-80
2023/05/04 13:58:32;;;;;;;7.18;4.60;;;;;;;;;;5021986;28;20435;-80
2023/05/04 14:00:59;;;;;;;11.18;5.40;;;;;;;;;;5021790;28;20033;-80
2023/05/04 14:03:27;;;;;;;10.70;5.10;;;;;;;;;;5021755;28;20028;-80
2023/05/04 14:05:53;;;;;;;11.38;4.55;;;;;;;;;;5022575;28;20036;-80
2023/05/04 14:08:19;;;;;;;9.40;4.95;;;;;;;;;;5005524;28;20043;-80
2023/05/04 14:10:44;;;;;;;13.20;5.80;;;;;;;;;;5038278;28;20033;-79
2023/05/04 14:13:10;;;;;;;11.30;4.78;;;;;;;;;;5055789;28;20090;-81
2023/05/04 14:15:35;;;;;;;9.52;4.47;;;;;;;;;;5021647;28;20070;-81
2023/05/04 14:18:01;;;;;;;8.93;4.43;;;;;;;;;;5005449;28;20033;-81
2023/05/04 14:20:26;;;;;;;9.75;4.82;;;;;;;;;;5038315;28;20029;-80
2023/05/04 14:22:52;;;;;;;10.80;4.30;;;;;;;;;;5021438;28;20116;-78